Time;durP1;ratioP1;P1;durP2;ratioP2;P2;SDS_P1;SDS_P2;PMS_P1;PMS_P2;Temp;Humidity;BMP_temperature;BMP_pressure;BME280_temperature;BME280_humidity;BME280_pressure;Samples;Min_cycle;Max_cycle;Signal;HPM_P1;HPM_P2
2023/11/24 00:02:03;;;;;;;8.43;5.32;;;;;;;-5.40;62.70;96255.81;5033305;28;20026;-56
2023/11/24 00:04:29;;;;;;;9.90;5.88;;;;;;;-5.36;63.05;96246.81;5039345;28;20059;-58
2023/11/24 00:06:55;;;;;;;10.82;6.47;;;;;;;-5.39;62.86;96244.44;5053478;28;20043;-56
2023/11/24 00:09:23;;;;;;;11.13;5.82;;;;;;;-5.33;62.84;96235.34;5053528;28;20428;-59
2023/11/24 00:11:49;;;;;;;9.93;5.55;;;;;;;-5.34;62.85;96233.69;5054120;28;20502;-57
2023/11/24 00:14:15;;;;;;;12.48;5.97;;;;;;;-5.51;62.77;96207.06;5041249;28;20053;-55
2023/11/24 00:16:40;;;;;;;12.25;5.78;;;;;;;-5.23;62.53;96231.09;5033621;28;20025;-59
2023/11/24 00:19:10;;;;;;;8.70;5.55;;;;;;;-5.31;62.91;96216.97;5034824;28;20025;-59
2023/11/24 00:21:37;;;;;;;11.80;5.93;;;;;;;-5.12;61.96;96232.09;5034111;28;20026;-55
2023/11/24 00:24:04;;;;;;;13.30;6.65;;;;;;;-5.28;62.11;96227.19;5046996;28;20032;-58
2023/11/24 00:26:30;;;;;;;12.38;5.78;;;;;;;-5.28;62.99;96220.19;5053238;28;20045;-58
2023/11/24 00:28:56;;;;;;;10.02;5.90;;;;;;;-5.30;63.08;96203.00;5053717;28;20476;-56
2023/11/24 00:31:24;;;;;;;11.63;5.97;;;;;;;-5.20;63.13;96212.59;5053921;28;20483;-57
2023/11/24 00:33:51;;;;;;;9.88;5.72;;;;;;;-5.50;62.99;96155.78;5053512;28;20025;-60
2023/11/24 00:36:16;;;;;;;11.35;6.07;;;;;;;-5.14;62.30;96193.06;5053246;28;20032;-55
2023/11/24 00:38:42;;;;;;;10.77;6.47;;;;;;;-5.19;62.60;96195.19;5049190;28;20033;-55
2023/11/24 00:41:09;;;;;;;13.88;6.57;;;;;;;-5.23;62.47;96188.56;5053669;28;20044;-58
2023/11/24 00:43:36;;;;;;;10.82;6.22;;;;;;;-5.20;62.21;96172.66;5053577;28;20044;-52
2023/11/24 00:46:03;;;;;;;12.60;6.53;;;;;;;-5.28;62.15;96162.81;5052685;28;20116;-53
2023/11/24 00:48:29;;;;;;;10.95;6.45;;;;;;;-5.47;62.36;96122.47;5052186;28;20058;-50
2023/11/24 00:50:54;;;;;;;11.98;6.82;;;;;;;-5.34;62.53;96171.91;5053431;28;20112;-57
2023/11/24 00:53:21;;;;;;;11.23;6.28;;;;;;;-5.34;62.88;96166.69;5053329;28;20116;-57
2023/11/24 00:55:47;;;;;;;11.98;6.53;;;;;;;-5.34;62.91;96158.88;5053193;28;20352;-60
2023/11/24 00:58:12;;;;;;;11.50;6.43;;;;;;;-5.40;63.20;96148.94;5051514;28;20029;-57
2023/11/24 01:00:38;;;;;;;12.25;6.43;;;;;;;-5.36;62.94;96141.72;5051546;28;20029;-55
2023/11/24 01:03:08;;;;;;;12.60;6.80;;;;;;;-5.26;62.68;96153.09;5035632;28;20025;-57
2023/11/24 01:05:34;;;;;;;12.63;6.60;;;;;;;-5.20;62.36;96143.97;5031378;28;20149;-59
2023/11/24 01:08:00;;;;;;;14.95;7.13;;;;;;;-5.22;62.68;96151.09;5030894;28;20165;-53
2023/11/24 01:10:26;;;;;;;14.48;7.10;;;;;;;-5.37;62.71;96130.44;5032424;28;20033;-57
2023/11/24 01:12:53;;;;;;;18.08;8.05;;;;;;;-5.27;62.99;96151.44;5030736;28;20060;-53
2023/11/24 01:15:20;;;;;;;13.57;7.18;;;;;;;-5.30;63.06;96136.03;5031762;28;20029;-53
2023/11/24 01:17:45;;;;;;;12.80;6.65;;;;;;;-5.23;63.02;96128.56;5032666;28;20040;-58
2023/11/24 01:20:12;;;;;;;12.45;6.70;;;;;;;-5.19;62.90;96130.81;5033434;28;20025;-57
2023/11/24 01:22:38;;;;;;;12.52;7.35;;;;;;;-5.15;62.65;96118.38;5032970;28;20041;-59
2023/11/24 01:25:05;;;;;;;13.48;7.43;;;;;;;-5.09;62.40;96115.28;5032201;28;20069;-57
2023/11/24 01:27:31;;;;;;;17.48;7.60;;;;;;;-5.10;62.92;96112.81;5032275;28;20075;-59
2023/11/24 01:29:56;;;;;;;12.68;7.28;;;;;;;-5.12;62.54;96086.84;5032517;28;20060;-60
2023/11/24 01:32:23;;;;;;;13.20;7.22;;;;;;;-5.13;62.84;96097.41;5032349;28;20483;-58
2023/11/24 01:34:48;;;;;;;16.30;7.55;;;;;;;-5.14;63.16;96078.31;5041829;28;20031;-59
2023/11/24 01:37:14;;;;;;;14.85;7.65;;;;;;;-5.08;62.05;96069.19;5051554;28;20033;-57
2023/11/24 01:39:40;;;;;;;15.02;7.97;;;;;;;-5.10;62.35;96066.69;5051979;28;20333;-58
2023/11/24 01:42:05;;;;;;;13.23;7.45;;;;;;;-5.26;62.83;96040.97;5052597;28;20448;-61
2023/11/24 01:44:31;;;;;;;15.05;7.50;;;;;;;-5.09;62.80;96062.31;5052247;28;20059;-61
2023/11/24 01:46:57;;;;;;;14.57;8.50;;;;;;;-5.05;62.57;96056.75;5051565;28;20033;-60
2023/11/24 01:49:27;;;;;;;17.35;8.40;;;;;;;-5.06;62.35;96049.03;5041955;28;20364;-60
2023/11/24 01:51:55;;;;;;;12.57;7.32;;;;;;;-5.05;62.74;96048.91;5031823;28;20111;-56
2023/11/24 01:54:24;;;;;;;13.15;8.00;;;;;;;-5.17;62.96;96023.78;5031341;28;20520;-56
2023/11/24 01:56:51;;;;;;;13.93;7.35;;;;;;;-5.07;62.38;96022.09;5030335;28;20104;-59
2023/11/24 01:59:17;;;;;;;13.70;8.20;;;;;;;-4.93;62.30;96031.47;5033709;28;20459;-57
2023/11/24 02:01:43;;;;;;;14.70;7.90;;;;;;;-4.88;62.15;96038.09;5031294;28;20037;-57
2023/11/24 02:04:08;;;;;;;14.15;7.28;;;;;;;-4.98;62.04;96020.53;5031569;28;20052;-58
2023/11/24 02:06:34;;;;;;;17.67;8.77;;;;;;;-5.03;62.22;96029.69;5030914;28;20029;-56
2023/11/24 02:09:00;;;;;;;14.65;8.48;;;;;;;-5.14;62.66;96014.91;5031745;28;20030;-58
2023/11/24 02:11:26;;;;;;;14.85;8.40;;;;;;;-5.07;62.01;96013.44;5034594;28;20022;-60
2023/11/24 02:13:53;;;;;;;15.10;8.38;;;;;;;-5.18;62.72;96003.84;5035457;28;20044;-58
2023/11/24 02:16:19;;;;;;;14.15;7.90;;;;;;;-5.05;62.29;96012.38;5054861;28;20440;-57
2023/11/24 02:18:46;;;;;;;14.43;8.20;;;;;;;-5.10;62.31;96000.66;5055958;28;20065;-58
2023/11/24 02:21:31;;;;;;;16.80;9.05;;;;;;;-5.22;62.84;95990.22;5041253;28;20037;-60
2023/11/24 02:23:57;;;;;;;14.18;8.35;;;;;;;-5.17;63.22;95991.66;5054060;28;20025;-57
2023/11/24 02:26:25;;;;;;;13.77;8.70;;;;;;;-5.10;63.52;96004.06;5056749;28;20114;-61
2023/11/24 02:28:50;;;;;;;17.83;8.70;;;;;;;-4.98;62.33;96004.88;5055749;28;20481;-55
2023/11/24 02:31:16;;;;;;;18.27;10.30;;;;;;;-4.96;62.58;96000.38;5055863;28;20030;-57
2023/11/24 02:33:42;;;;;;;17.95;9.07;;;;;;;-5.07;62.85;95992.59;5049555;28;20440;-56
2023/11/24 02:36:20;;;;;;;16.70;9.52;;;;;;;-5.23;62.97;95980.75;5036269;28;20029;-60
2023/11/24 02:38:49;;;;;;;18.92;9.48;;;;;;;-5.13;62.29;95975.63;5037192;28;20029;-59
2023/11/24 02:41:16;;;;;;;16.27;8.05;;;;;;;-5.12;62.71;95984.31;5054402;28;20471;-57
2023/11/24 02:43:42;;;;;;;18.52;9.93;;;;;;;-5.15;62.67;95980.16;5054950;28;20083;-58
2023/11/24 02:46:15;;;;;;;21.38;9.82;;;;;;;-5.20;63.22;95977.88;5055497;28;20033;-59
2023/11/24 02:48:42;;;;;;;17.85;9.38;;;;;;;-5.48;62.93;95930.53;5053705;28;20064;-53
2023/11/24 02:51:08;;;;;;;17.25;9.63;;;;;;;-5.26;63.51;95961.91;5054909;28;20113;-58
2023/11/24 02:53:37;;;;;;;19.45;9.80;;;;;;;-5.21;63.89;95965.00;5055114;28;20130;-58
2023/11/24 02:56:04;;;;;;;15.15;9.48;;;;;;;-5.19;63.02;95961.28;5055917;28;20040;-58
2023/11/24 02:58:31;;;;;;;15.95;9.57;;;;;;;-5.19;63.23;95961.28;5055599;28;20086;-57
2023/11/24 03:00:56;;;;;;;17.00;10.45;;;;;;;-5.12;63.09;95964.25;5055345;28;20029;-56
2023/11/24 03:03:23;;;;;;;18.40;10.02;;;;;;;-5.15;63.43;95961.06;5053292;28;20371;-58
2023/11/24 03:05:52;;;;;;;15.43;9.13;;;;;;;-5.13;63.60;95948.75;5055602;28;20499;-58
2023/11/24 03:08:19;;;;;;;18.85;10.32;;;;;;;-5.09;63.19;95948.34;5054304;28;20052;-60
2023/11/24 03:10:46;;;;;;;22.30;10.27;;;;;;;-4.94;62.52;95958.53;5053329;28;20028;-59
2023/11/24 03:13:13;;;;;;;19.17;10.90;;;;;;;-5.11;63.30;95947.66;5055521;28;20033;-53
2023/11/24 03:15:40;;;;;;;16.10;8.93;;;;;;;-5.04;63.33;95942.78;5054922;28;20090;-54
2023/11/24 03:18:06;;;;;;;18.50;10.48;;;;;;;-5.05;63.15;95923.72;5054106;28;20051;-53
2023/11/24 03:20:32;;;;;;;19.48;10.15;;;;;;;-5.01;62.80;95916.44;5054601;28;20040;-54
2023/11/24 03:22:57;;;;;;;19.23;10.45;;;;;;;-5.41;62.90;95868.31;5054321;28;20024;-53
2023/11/24 03:25:24;;;;;;;18.25;10.25;;;;;;;-5.13;63.74;95928.69;5054066;28;20087;-53
2023/11/24 03:27:49;;;;;;;20.48;10.13;;;;;;;-5.14;64.26;95921.81;5052274;28;20039;-52
2023/11/24 03:30:15;;;;;;;19.95;10.80;;;;;;;-5.05;63.10;95921.09;5054667;28;20032;-58
2023/11/24 03:32:42;;;;;;;18.92;10.32;;;;;;;-5.10;63.76;95912.78;5054348;28;20041;-58
2023/11/24 03:35:09;;;;;;;23.20;10.50;;;;;;;-5.03;63.83;95914.94;5052409;28;20055;-54
2023/11/24 03:37:35;;;;;;;20.83;9.68;;;;;;;-4.96;63.00;95923.91;5034876;28;20042;-57
2023/11/24 03:40:01;;;;;;;19.17;9.85;;;;;;;-4.98;63.70;95902.34;5034492;28;20033;-60
2023/11/24 03:42:29;;;;;;;21.02;9.90;;;;;;;-4.92;62.65;95899.22;5035278;28;20064;-59
2023/11/24 03:44:55;;;;;;;19.98;11.07;;;;;;;-5.49;62.47;95813.38;5034652;28;20045;-54
2023/11/24 03:47:21;;;;;;;25.27;11.02;;;;;;;-5.13;63.69;95907.81;5017273;28;20079;-56
2023/11/24 03:49:46;;;;;;;23.42;10.00;;;;;;;-5.15;63.61;95908.91;5034635;28;20031;-59
2023/11/24 03:52:12;;;;;;;20.42;10.68;;;;;;;-5.12;63.81;95896.44;5034690;28;20034;-54
2023/11/24 03:54:38;;;;;;;18.67;10.32;;;;;;;-5.10;63.72;95884.09;5034704;28;20029;-59
2023/11/24 03:57:04;;;;;;;22.38;10.20;;;;;;;-5.11;64.22;95889.47;5034441;28;20088;-59
2023/11/24 03:59:29;;;;;;;18.30;9.95;;;;;;;-5.03;64.43;95881.00;5035329;28;20025;-58
2023/11/24 04:01:55;;;;;;;20.17;10.60;;;;;;;-4.92;63.55;95883.56;5034384;28;20039;-59
2023/11/24 04:04:20;;;;;;;18.73;10.70;;;;;;;-4.94;63.36;95890.69;5034483;28;20349;-59
2023/11/24 04:06:46;;;;;;;19.77;11.05;;;;;;;-4.93;63.68;95881.91;5034259;28;20098;-60
2023/11/24 04:09:12;;;;;;;19.15;10.63;;;;;;;-4.90;64.00;95885.09;5033938;28;20061;-53
2023/11/24 04:11:37;;;;;;;20.50;10.60;;;;;;;-4.88;64.17;95878.94;5034556;28;20064;-57
2023/11/24 04:14:03;;;;;;;20.77;10.45;;;;;;;-4.99;64.25;95851.13;5035275;28;20033;-55
2023/11/24 04:16:32;;;;;;;22.15;11.05;;;;;;;-4.71;63.58;95873.13;5050257;28;20459;-59
2023/11/24 04:18:57;;;;;;;22.77;10.68;;;;;;;-4.72;63.90;95879.31;5053382;28;20082;-55
2023/11/24 04:21:23;;;;;;;21.13;11.00;;;;;;;-4.77;63.90;95874.50;5054377;28;20029;-56
2023/11/24 04:23:49;;;;;;;18.42;10.38;;;;;;;-4.79;64.33;95889.44;5044776;28;20049;-59
2023/11/24 04:26:14;;;;;;;21.50;11.15;;;;;;;-4.68;63.12;95879.91;5034262;28;20045;-59
2023/11/24 04:28:40;;;;;;;22.23;10.35;;;;;;;-4.65;62.91;95863.97;5033747;28;20037;-58
2023/11/24 04:31:05;;;;;;;19.73;11.80;;;;;;;-4.84;63.39;95859.47;5033962;28;20036;-59
2023/11/24 04:33:31;;;;;;;24.75;11.40;;;;;;;-4.88;63.64;95856.25;5033661;28;20029;-58
2023/11/24 04:35:57;;;;;;;27.67;13.23;;;;;;;-4.88;63.92;95852.84;5033855;28;20492;-58
2023/11/24 04:38:23;;;;;;;19.02;9.30;;;;;;;-5.03;64.48;95836.66;5034461;28;20053;-60
2023/11/24 04:40:49;;;;;;;24.90;9.93;;;;;;;-4.80;63.10;95851.25;5053908;28;20068;-58
2023/11/24 04:43:14;;;;;;;23.20;11.23;;;;;;;-5.00;64.19;95852.88;5053877;28;20171;-56
2023/11/24 04:45:40;;;;;;;24.67;9.90;;;;;;;-4.99;64.37;95856.34;5035572;28;20041;-59
2023/11/24 04:48:09;;;;;;;19.75;11.00;;;;;;;-5.00;64.14;95850.28;5051377;28;20028;-57
2023/11/24 04:50:34;;;;;;;20.23;12.07;;;;;;;-5.06;64.22;95845.56;5053142;28;20029;-56
2023/11/24 04:53:02;;;;;;;21.15;11.48;;;;;;;-5.05;64.03;95832.41;5053269;28;20029;-54
2023/11/24 04:55:29;;;;;;;19.75;10.88;;;;;;;-4.99;64.33;95830.25;5052371;28;20025;-58
2023/11/24 04:57:54;;;;;;;20.05;10.77;;;;;;;-5.01;64.72;95834.75;5052784;28;20048;-58
2023/11/24 05:00:20;;;;;;;24.85;11.88;;;;;;;-5.30;64.79;95785.81;5053343;28;20021;-58
2023/11/24 05:02:46;;;;;;;26.63;11.73;;;;;;;-4.91;64.14;95815.63;5051144;28;20029;-56
2023/11/24 05:05:12;;;;;;;19.58;10.63;;;;;;;-4.97;63.86;95807.47;5051906;28;20087;-57
2023/11/24 05:07:38;;;;;;;29.40;10.77;;;;;;;-4.87;63.84;95818.78;5052467;28;20032;-58
2023/11/24 05:10:04;;;;;;;19.33;11.25;;;;;;;-4.88;64.41;95821.53;5048150;28;20043;-59
2023/11/24 05:12:31;;;;;;;25.08;12.02;;;;;;;-4.98;64.43;95818.84;5052894;28;20075;-61
2023/11/24 05:14:57;;;;;;;24.25;12.48;;;;;;;-5.02;64.97;95812.25;5052575;28;20064;-60
2023/11/24 05:17:22;;;;;;;25.27;10.85;;;;;;;-4.88;64.25;95817.13;5050749;28;20025;-62
2023/11/24 05:19:48;;;;;;;26.58;12.80;;;;;;;-4.83;63.99;95825.41;5034185;28;20141;-62
2023/11/24 05:22:13;;;;;;;23.42;12.05;;;;;;;-4.86;64.17;95819.63;5032262;28;20029;-56
2023/11/24 05:24:39;;;;;;;22.27;12.13;;;;;;;-4.90;64.25;95803.38;5032388;28;20040;-58
2023/11/24 05:27:06;;;;;;;22.73;11.65;;;;;;;-4.93;64.68;95812.31;5032765;28;20318;-58
2023/11/24 05:29:32;;;;;;;26.08;13.23;;;;;;;-4.88;64.23;95817.13;5032587;28;20048;-56
2023/11/24 05:31:58;;;;;;;24.98;13.20;;;;;;;-4.93;64.56;95806.25;5032377;28;20084;-60
2023/11/24 05:34:27;;;;;;;24.83;12.15;;;;;;;-4.97;65.68;95817.91;5049438;28;20099;-57
2023/11/24 05:36:53;;;;;;;25.83;13.63;;;;;;;-4.85;64.52;95814.25;5051311;28;20416;-58
2023/11/24 05:39:19;;;;;;;27.63;13.73;;;;;;;-4.86;64.73;95814.41;5046659;28;20116;-54
2023/11/24 05:41:44;;;;;;;30.65;14.27;;;;;;;-5.14;64.65;95767.94;5031534;28;20045;-53
2023/11/24 05:44:11;;;;;;;22.92;12.40;;;;;;;-4.92;65.22;95821.78;5031380;28;20025;-58
2023/11/24 05:46:40;;;;;;;31.38;14.07;;;;;;;-4.78;64.81;95818.03;5032447;28;20056;-57
2023/11/24 05:49:06;;;;;;;27.17;14.50;;;;;;;-4.78;64.30;95815.44;5032435;28;20489;-57
2023/11/24 05:51:32;;;;;;;34.55;15.60;;;;;;;-4.86;64.84;95815.22;5032561;28;20033;-56
2023/11/24 05:53:57;;;;;;;28.25;14.27;;;;;;;-4.87;64.94;95808.34;5032988;28;20114;-58
2023/11/24 05:56:23;;;;;;;26.63;13.20;;;;;;;-4.91;65.08;95801.72;5049870;28;20116;-56
2023/11/24 05:58:51;;;;;;;23.23;12.77;;;;;;;-4.76;64.64;95804.84;5052620;28;20069;-57
2023/11/24 06:01:20;;;;;;;30.30;15.43;;;;;;;-4.95;65.17;95785.50;5041996;28;20021;-53
2023/11/24 06:03:46;;;;;;;27.77;14.50;;;;;;;-4.79;64.89;95799.88;5031757;28;20441;-57
2023/11/24 06:06:12;;;;;;;27.70;14.70;;;;;;;-4.87;64.99;95782.25;5032341;28;20467;-57
2023/11/24 06:08:37;;;;;;;29.63;14.30;;;;;;;-4.63;64.56;95788.97;5033371;28;20025;-57
2023/11/24 06:11:03;;;;;;;30.98;14.68;;;;;;;-4.73;64.29;95788.94;5048444;28;20033;-57
2023/11/24 06:13:29;;;;;;;25.67;14.25;;;;;;;-4.76;65.15;95784.81;5050979;28;20416;-58
2023/11/24 06:15:57;;;;;;;27.88;14.88;;;;;;;-4.77;65.09;95767.50;5052232;28;20029;-56
2023/11/24 06:18:24;;;;;;;26.58;13.48;;;;;;;-4.55;63.84;95776.13;5049758;28;20021;-57
2023/11/24 06:20:50;;;;;;;28.05;14.52;;;;;;;-4.63;64.40;95783.75;5032030;28;20147;-56
2023/11/24 06:23:24;;;;;;;22.50;12.43;;;;;;;-4.49;63.54;95786.03;5032417;28;20192;-59
2023/11/24 06:25:50;;;;;;;31.45;14.93;;;;;;;-4.55;63.89;95776.13;5050632;28;20045;-58
2023/11/24 06:28:15;;;;;;;29.23;15.05;;;;;;;-4.58;63.67;95779.00;5052311;28;20036;-57
2023/11/24 06:30:41;;;;;;;23.38;12.20;;;;;;;-4.85;63.47;95730.78;5051125;28;20029;-58
2023/11/24 06:33:07;;;;;;;27.77;15.82;;;;;;;-4.70;64.49;95780.03;5051621;28;20032;-60
2023/11/24 06:35:32;;;;;;;32.20;16.67;;;;;;;-4.70;64.42;95769.59;5052223;28;20363;-56
2023/11/24 06:37:58;;;;;;;28.35;15.63;;;;;;;-4.72;64.28;95756.66;5051631;28;20033;-57
2023/11/24 06:40:24;;;;;;;25.73;13.82;;;;;;;-4.42;63.54;95775.06;5035545;28;20038;-56
2023/11/24 06:42:50;;;;;;;27.40;15.13;;;;;;;-4.41;63.43;95772.34;5031831;28;20045;-60
2023/11/24 06:45:16;;;;;;;25.83;13.77;;;;;;;-4.47;63.24;95754.56;5032937;28;20030;-57
2023/11/24 06:47:41;;;;;;;22.13;12.10;;;;;;;-4.42;63.34;95756.78;5032383;28;20038;-57
2023/11/24 06:50:09;;;;;;;27.27;14.70;;;;;;;-4.59;63.46;95753.84;5031962;28;20477;-58
2023/11/24 06:52:35;;;;;;;27.95;14.30;;;;;;;-4.88;64.25;95717.97;5031723;28;20025;-60
2023/11/24 06:55:01;;;;;;;29.25;15.15;;;;;;;-4.49;63.50;95759.09;5049208;28;20637;-59
2023/11/24 06:57:26;;;;;;;29.98;15.43;;;;;;;-4.49;63.64;95767.78;5055781;28;20458;-60
2023/11/24 06:59:52;;;;;;;31.20;14.20;;;;;;;-4.38;63.86;95761.63;5049357;28;20033;-61
2023/11/24 07:02:18;;;;;;;29.40;15.80;;;;;;;-4.41;63.41;95759.28;5035163;28;20376;-56
2023/11/24 07:04:45;;;;;;;25.30;14.23;;;;;;;-4.46;64.10;95753.63;5041737;28;20379;-58
2023/11/24 07:07:11;;;;;;;26.20;12.90;;;;;;;-4.30;63.38;95742.69;5055137;28;20040;-59
2023/11/24 07:09:36;;;;;;;29.85;14.95;;;;;;;-4.32;63.04;95745.44;5055000;28;20036;-58
2023/11/24 07:12:02;;;;;;;33.05;17.33;;;;;;;-4.35;63.64;95760.53;5055010;28;20356;-61
2023/11/24 07:14:28;;;;;;;33.88;17.75;;;;;;;-4.28;64.21;95739.94;5050924;28;20029;-57
2023/11/24 07:16:53;;;;;;;35.85;16.60;;;;;;;-4.24;63.90;95741.31;5037207;28;20057;-56
2023/11/24 07:19:21;;;;;;;29.30;16.63;;;;;;;-4.18;63.77;95746.03;5034259;28;20029;-61
2023/11/24 07:21:47;;;;;;;27.67;13.50;;;;;;;-4.05;63.55;95751.03;5049017;28;20080;-60
2023/11/24 07:24:13;;;;;;;32.47;16.35;;;;;;;-4.08;62.93;95751.28;5049267;28;20052;-59
2023/11/24 07:26:38;;;;;;;29.73;15.93;;;;;;;-4.14;62.82;95739.59;5034238;28;20037;-60
2023/11/24 07:29:04;;;;;;;30.30;15.02;;;;;;;-4.38;62.44;95706.81;5025297;28;20118;-62
2023/11/24 07:31:29;;;;;;;31.15;15.13;;;;;;;-4.48;63.17;95708.53;5054029;28;20036;-62
2023/11/24 07:33:55;;;;;;;34.13;17.17;;;;;;;-4.14;62.43;95757.03;5054564;28;20080;-62
2023/11/24 07:36:21;;;;;;;34.95;17.48;;;;;;;-4.24;62.87;95747.38;5039180;28;20400;-60
2023/11/24 07:38:47;;;;;;;34.40;17.17;;;;;;;-4.29;62.94;95752.19;5034278;28;20025;-57
2023/11/24 07:41:14;;;;;;;31.38;16.80;;;;;;;-4.26;63.05;95758.91;5047360;28;20356;-54
2023/11/24 07:43:39;;;;;;;34.67;17.70;;;;;;;-3.98;62.61;95741.69;5052088;28;20472;-57
2023/11/24 07:46:07;;;;;;;34.00;16.92;;;;;;;-3.93;62.78;95752.53;5045505;28;20053;-57
2023/11/24 07:48:37;;;;;;;34.40;16.50;;;;;;;-3.75;62.02;95751.91;5051154;28;20029;-58
2023/11/24 07:51:05;;;;;;;35.33;16.35;;;;;;;-3.83;61.17;95728.25;5040587;28;20356;-57
2023/11/24 07:53:31;;;;;;;37.78;16.65;;;;;;;-3.78;60.89;95744.31;5034115;28;20360;-58
2023/11/24 07:55:57;;;;;;;37.25;16.65;;;;;;;-3.79;60.47;95747.91;5034131;28;20036;-58
2023/11/24 07:58:23;;;;;;;38.72;17.52;;;;;;;-3.91;61.46;95747.19;5037004;28;20029;-59
2023/11/24 08:00:48;;;;;;;34.20;18.05;;;;;;;-3.86;62.16;95749.38;5044017;28;20108;-60
2023/11/24 08:03:16;;;;;;;33.40;17.58;;;;;;;-3.53;60.49;95742.97;5052736;28;20080;-60
2023/11/24 08:05:42;;;;;;;32.97;17.15;;;;;;;-3.58;60.90;95741.75;5044486;28;20036;-60
2023/11/24 08:08:08;;;;;;;33.03;16.85;;;;;;;-3.35;60.54;95742.28;5052350;28;20029;-62
2023/11/24 08:10:33;;;;;;;36.63;18.65;;;;;;;-3.24;60.68;95736.91;5046920;28;20025;-59
2023/11/24 08:12:59;;;;;;;36.83;18.60;;;;;;;-3.20;60.52;95750.53;5039285;28;20689;-62
2023/11/24 08:15:25;;;;;;;39.58;18.83;;;;;;;-3.07;60.15;95758.94;5037879;28;20135;-60
2023/11/24 08:17:51;;;;;;;44.83;19.05;;;;;;;-2.98;59.51;95738.13;5050322;28;20043;-59
2023/11/24 08:20:18;;;;;;;37.35;18.67;;;;;;;-3.08;60.04;95744.19;5046678;28;20052;-60
2023/11/24 08:22:44;;;;;;;36.67;17.05;;;;;;;-3.18;59.59;95717.19;5037841;28;20040;-61
2023/11/24 08:25:11;;;;;;;35.83;17.40;;;;;;;-2.97;59.89;95734.53;5039439;28;20029;-61
2023/11/24 08:27:38;;;;;;;38.45;18.67;;;;;;;-3.04;60.05;95739.50;5051867;28;20076;-58
2023/11/24 08:30:10;;;;;;;34.72;17.13;;;;;;;-3.06;59.92;95737.03;5043334;28;20113;-62
2023/11/24 08:32:40;;;;;;;35.55;17.52;;;;;;;-3.04;59.86;95724.63;5047970;28;20036;-60
2023/11/24 08:35:06;;;;;;;34.25;16.42;;;;;;;-3.01;59.10;95727.94;5047448;28;20021;-60
2023/11/24 08:37:32;;;;;;;36.67;16.35;;;;;;;-3.37;59.59;95700.59;5040534;28;20104;-60
2023/11/24 08:39:58;;;;;;;33.97;15.75;;;;;;;-3.18;60.63;95725.88;5050818;28;20436;-61
2023/11/24 08:42:25;;;;;;;39.67;17.08;;;;;;;-3.12;59.39;95721.91;5038906;28;20037;-57
2023/11/24 08:44:51;;;;;;;36.25;17.35;;;;;;;-3.19;59.79;95726.03;5036244;28;20064;-61
2023/11/24 08:47:17;;;;;;;32.05;16.73;;;;;;;-3.26;60.21;95730.97;5032691;28;20065;-58
2023/11/24 08:49:42;;;;;;;38.30;16.75;;;;;;;-3.07;59.46;95727.53;5033698;28;20025;-58
2023/11/24 08:52:09;;;;;;;23.67;12.98;;;;;;;-2.87;58.84;95724.88;5051270;28;20095;-57
2023/11/24 08:54:36;;;;;;;31.33;15.52;;;;;;;-3.35;59.11;95677.72;5038028;28;20039;-60
2023/11/24 08:57:05;;;;;;;29.92;16.48;;;;;;;-3.37;59.70;95682.28;5033836;28;20034;-57
2023/11/24 08:59:31;;;;;;;34.90;16.42;;;;;;;-3.36;59.09;95675.25;5032238;28;20462;-58
2023/11/24 09:01:58;;;;;;;25.30;12.50;;;;;;;-3.04;59.60;95708.09;5034187;28;20036;-59
2023/11/24 09:04:26;;;;;;;31.00;15.18;;;;;;;-3.06;59.72;95700.41;5050155;28;20119;-58
2023/11/24 09:06:52;;;;;;;31.27;15.98;;;;;;;-3.03;59.45;95705.34;5046735;28;20447;-55
2023/11/24 09:09:17;;;;;;;36.38;16.08;;;;;;;-2.93;59.22;95707.09;5032435;28;20044;-58
2023/11/24 09:11:43;;;;;;;31.05;15.57;;;;;;;-2.97;59.22;95696.13;5031415;28;20087;-59
2023/11/24 09:14:09;;;;;;;27.95;15.02;;;;;;;-2.83;59.25;95705.31;5035660;28;20443;-61
2023/11/24 09:16:35;;;;;;;28.38;14.52;;;;;;;-2.69;59.34;95711.88;5042300;28;20468;-61
2023/11/24 09:19:00;;;;;;;31.65;16.15;;;;;;;-2.49;58.28;95693.47;5047282;28;20043;-58
2023/11/24 09:21:27;;;;;;;31.58;15.25;;;;;;;-2.60;57.83;95652.59;5043928;28;20033;-61
2023/11/24 09:23:53;;;;;;;32.88;15.80;;;;;;;-2.17;57.97;95690.41;5041899;28;20103;-55
2023/11/24 09:26:19;;;;;;;31.60;15.02;;;;;;;-1.92;56.76;95695.94;5037818;28;20046;-57
2023/11/24 09:28:44;;;;;;;31.77;14.88;;;;;;;-1.91;56.71;95702.81;5036643;28;20414;-60
2023/11/24 09:31:12;;;;;;;30.23;15.60;;;;;;;-1.86;57.40;95680.56;5051960;28;20025;-61
2023/11/24 09:33:39;;;;;;;29.30;15.85;;;;;;;-1.61;57.44;95698.19;5050849;28;20325;-61
2023/11/24 09:36:06;;;;;;;26.80;15.93;;;;;;;-1.21;56.04;95703.91;5050985;28;20035;-62
2023/11/24 09:38:33;;;;;;;31.73;15.88;;;;;;;-1.07;55.33;95692.03;5051789;28;20031;-54
2023/11/24 09:41:08;;;;;;;24.63;14.98;;;;;;;-0.81;55.37;95696.47;5040202;28;20116;-59
2023/11/24 09:43:40;;;;;;;29.17;15.13;;;;;;;-0.56;54.94;95699.25;5048046;28;20379;-56
2023/11/24 09:46:10;;;;;;;23.40;13.20;;;;;;;-0.15;53.92;95701.22;5051519;28;20021;-56
2023/11/24 09:48:40;;;;;;;21.58;10.32;;;;;;;-0.05;52.59;95706.34;5051941;28;20025;-56
2023/11/24 09:51:08;;;;;;;25.77;13.23;;;;;;;-0.51;53.69;95717.19;5038175;28;20033;-58
2023/11/24 09:53:33;;;;;;;24.60;14.57;;;;;;;-0.74;54.11;95702.75;5031131;28;20096;-53
2023/11/24 09:56:00;;;;;;;28.02;13.77;;;;;;;-0.83;54.47;95722.06;5035399;28;20033;-55
2023/11/24 09:58:26;;;;;;;20.88;9.68;;;;;;;-1.06;54.90;95711.25;5033416;28;20128;-58
2023/11/24 10:00:58;;;;;;;27.92;15.20;;;;;;;-1.48;55.69;95720.56;5032775;28;20185;-60
2023/11/24 10:03:26;;;;;;;19.42;10.00;;;;;;;-1.60;55.52;95728.69;5034256;28;20040;-61
2023/11/24 10:05:52;;;;;;;28.30;13.80;;;;;;;-1.86;56.18;95717.28;5030850;28;20033;-58
2023/11/24 10:08:18;;;;;;;26.00;14.02;;;;;;;-2.29;58.03;95711.69;5031932;28;20034;-56
2023/11/24 10:10:43;;;;;;;26.85;15.02;;;;;;;-2.23;57.39;95730.28;5030486;28;20106;-60
2023/11/24 10:13:09;;;;;;;25.52;14.30;;;;;;;-2.26;57.25;95741.06;5031285;28;20029;-63
2023/11/24 10:15:34;;;;;;;26.73;14.38;;;;;;;-2.40;57.26;95731.06;5038146;28;20028;-65
2023/11/24 10:18:03;;;;;;;27.65;14.57;;;;;;;-2.46;57.88;95737.72;5049512;28;20493;-63
2023/11/24 10:20:30;;;;;;;28.33;13.98;;;;;;;-2.43;57.21;95747.06;5043600;28;20036;-64
2023/11/24 10:22:56;;;;;;;32.55;15.52;;;;;;;-2.62;59.01;95727.84;5031335;28;20349;-63
2023/11/24 10:25:29;;;;;;;30.60;15.70;;;;;;;-2.64;58.37;95732.41;5030957;28;20115;-64
2023/11/24 10:28:04;;;;;;;26.67;15.13;;;;;;;-2.63;59.34;95731.44;5031152;28;20125;-62
2023/11/24 10:30:34;;;;;;;32.45;15.43;;;;;;;-2.45;58.97;95732.31;5032092;28;20029;-63
2023/11/24 10:33:03;;;;;;;29.70;16.30;;;;;;;-2.37;59.56;95725.53;5038627;28;20460;-63
2023/11/24 10:35:29;;;;;;;32.88;16.60;;;;;;;-2.29;59.83;95724.78;5038450;28;20075;-61
2023/11/24 10:37:56;;;;;;;27.95;13.73;;;;;;;-1.94;57.70;95716.19;5055651;28;20060;-63
2023/11/24 10:40:24;;;;;;;32.28;15.40;;;;;;;-2.00;58.05;95727.28;5055515;28;20090;-63
2023/11/24 10:42:53;;;;;;;26.08;15.02;;;;;;;-2.17;58.34;95724.47;5055423;28;20569;-64
2023/11/24 10:45:21;;;;;;;27.67;15.43;;;;;;;-2.08;57.70;95740.28;5044754;28;20032;-63
2023/11/24 10:48:13;;;;;;;31.88;16.08;;;;;;;-2.20;58.57;95735.22;5036200;28;20091;-64
2023/11/24 10:50:45;;;;;;;28.75;16.27;;;;;;;-2.26;59.01;95727.16;5034340;28;20083;-64
2023/11/24 10:53:35;;;;;;;26.25;14.77;;;;;;;-2.25;58.65;95737.47;5054254;28;20102;-62
2023/11/24 10:56:04;;;;;;;28.15;14.40;;;;;;;-2.15;58.61;95736.63;5048594;28;20051;-60
2023/11/24 10:58:33;;;;;;;28.80;15.68;;;;;;;-2.19;58.59;95743.94;5049848;28;20349;-58
2023/11/24 11:01:03;;;;;;;36.58;16.02;;;;;;;-2.31;59.05;95733.63;5054478;28;20029;-62
2023/11/24 11:03:35;;;;;;;30.75;15.38;;;;;;;-2.22;58.88;95752.91;5054095;28;20058;-63
2023/11/24 11:06:10;;;;;;;33.00;16.27;;;;;;;-2.11;58.37;95753.69;5037519;28;20129;-62
2023/11/24 11:08:43;;;;;;;28.77;13.65;;;;;;;-2.05;58.46;95746.09;5033436;28;20033;-62
2023/11/24 11:11:25;;;;;;;32.28;16.05;;;;;;;-2.15;58.45;95765.44;5034903;28;20044;-62
2023/11/24 11:13:54;;;;;;;31.15;16.25;;;;;;;-2.22;58.28;95771.25;5038744;28;20116;-64
2023/11/24 11:16:20;;;;;;;34.20;17.15;;;;;;;-2.27;58.77;95770.84;5034312;28;20065;-63
2023/11/24 11:18:45;;;;;;;18.65;9.32;;;;;;;-1.86;56.99;95774.94;5035865;28;20075;-63